sensor_id;sensor_type;location;lat;lon;timestamp;P1;durP1;ratioP1;P2;durP2;ratioP2
40717;SDS011;26405;51.850;-2.246;2023-06-14T00:01:44;19.00;;;7.00;;
40717;SDS011;26405;51.850;-2.246;2023-06-14T00:04:10;16.77;;;6.93;;
40717;SDS011;26405;51.850;-2.246;2023-06-14T00:06:35;17.93;;;6.57;;
40717;SDS011;26405;51.850;-2.246;2023-06-14T00:09:01;15.43;;;6.87;;
40717;SDS011;26405;51.850;-2.246;2023-06-14T00:11:26;17.30;;;6.73;;
40717;SDS011;26405;51.850;-2.246;2023-06-14T00:13:52;13.93;;;6.33;;
40717;SDS011;26405;51.850;-2.246;2023-06-14T00:16:17;15.97;;;6.43;;
40717;SDS011;26405;51.850;-2.246;2023-06-14T00:18:42;15.13;;;5.87;;
40717;SDS011;26405;51.850;-2.246;2023-06-14T00:21:07;14.30;;;6.20;;
40717;SDS011;26405;51.850;-2.246;2023-06-14T00:23:33;16.17;;;6.37;;
40717;SDS011;26405;51.850;-2.246;2023-06-14T00:25:58;16.43;;;6.70;;
40717;SDS011;26405;51.850;-2.246;2023-06-14T00:28:24;14.90;;;5.93;;
40717;SDS011;26405;51.850;-2.246;2023-06-14T00:30:49;17.33;;;6.50;;
40717;SDS011;26405;51.850;-2.246;2023-06-14T00:33:14;14.30;;;6.07;;
40717;SDS011;26405;51.850;-2.246;2023-06-14T00:35:40;15.23;;;6.27;;
40717;SDS011;26405;51.850;-2.246;2023-06-14T00:38:05;15.43;;;5.87;;
40717;SDS011;26405;51.850;-2.246;2023-06-14T00:40:30;17.17;;;6.40;;
40717;SDS011;26405;51.850;-2.246;2023-06-14T00:42:55;17.43;;;6.60;;
40717;SDS011;26405;51.850;-2.246;2023-06-14T00:45:21;13.97;;;5.63;;
40717;SDS011;26405;51.850;-2.246;2023-06-14T00:47:46;14.13;;;5.93;;
40717;SDS011;26405;51.850;-2.246;2023-06-14T00:50:12;13.73;;;5.68;;
40717;SDS011;26405;51.850;-2.246;2023-06-14T00:52:38;17.73;;;5.50;;
40717;SDS011;26405;51.850;-2.246;2023-06-14T00:55:04;16.33;;;5.80;;
40717;SDS011;26405;51.850;-2.246;2023-06-14T00:57:29;20.53;;;5.60;;
40717;SDS011;26405;51.850;-2.246;2023-06-14T00:59:54;12.53;;;5.43;;
40717;SDS011;26405;51.850;-2.246;2023-06-14T01:02:20;12.53;;;5.50;;
40717;SDS011;26405;51.850;-2.246;2023-06-14T01:04:47;14.17;;;5.20;;
40717;SDS011;26405;51.850;-2.246;2023-06-14T01:12:20;14.73;;;5.00;;
40717;SDS011;26405;51.850;-2.246;2023-06-14T01:14:46;12.80;;;4.75;;
40717;SDS011;26405;51.850;-2.246;2023-06-14T01:17:12;10.65;;;4.53;;
40717;SDS011;26405;51.850;-2.246;2023-06-14T01:19:42;14.05;;;4.90;;
40717;SDS011;26405;51.850;-2.246;2023-06-14T01:22:07;11.23;;;5.07;;
40717;SDS011;26405;51.850;-2.246;2023-06-14T01:24:33;12.63;;;4.30;;
40717;SDS011;26405;51.850;-2.246;2023-06-14T01:26:59;9.57;;;4.25;;
40717;SDS011;26405;51.850;-2.246;2023-06-14T01:29:25;10.87;;;4.43;;
40717;SDS011;26405;51.850;-2.246;2023-06-14T01:31:52;7.43;;;3.85;;
40717;SDS011;26405;51.850;-2.246;2023-06-14T01:34:18;11.57;;;4.07;;
40717;SDS011;26405;51.850;-2.246;2023-06-14T01:36:43;6.70;;;3.73;;
40717;SDS011;26405;51.850;-2.246;2023-06-14T01:39:12;11.50;;;4.40;;
40717;SDS011;26405;51.850;-2.246;2023-06-14T01:41:39;8.80;;;3.80;;
40717;SDS011;26405;51.850;-2.246;2023-06-14T01:44:04;8.93;;;4.13;;
40717;SDS011;26405;51.850;-2.246;2023-06-14T01:46:30;9.27;;;3.70;;
40717;SDS011;26405;51.850;-2.246;2023-06-14T01:48:55;10.70;;;4.00;;
40717;SDS011;26405;51.850;-2.246;2023-06-14T01:51:20;10.07;;;4.30;;
40717;SDS011;26405;51.850;-2.246;2023-06-14T01:53:45;9.93;;;4.23;;
40717;SDS011;26405;51.850;-2.246;2023-06-14T01:56:11;9.17;;;3.93;;
40717;SDS011;26405;51.850;-2.246;2023-06-14T01:58:37;9.27;;;3.47;;
40717;SDS011;26405;51.850;-2.246;2023-06-14T02:01:02;12.53;;;3.70;;
40717;SDS011;26405;51.850;-2.246;2023-06-14T02:03:27;10.47;;;3.57;;
40717;SDS011;26405;51.850;-2.246;2023-06-14T02:05:53;9.87;;;3.80;;
40717;SDS011;26405;51.850;-2.246;2023-06-14T02:08:19;8.88;;;3.50;;
40717;SDS011;26405;51.850;-2.246;2023-06-14T02:10:45;6.60;;;3.40;;
40717;SDS011;26405;51.850;-2.246;2023-06-14T02:13:10;11.97;;;3.80;;
40717;SDS011;26405;51.850;-2.246;2023-06-14T02:15:35;12.17;;;3.93;;
40717;SDS011;26405;51.850;-2.246;2023-06-14T02:18:04;8.90;;;3.60;;
40717;SDS011;26405;51.850;-2.246;2023-06-14T02:20:29;10.18;;;3.40;;
40717;SDS011;26405;51.850;-2.246;2023-06-14T02:22:55;7.37;;;3.13;;
40717;SDS011;26405;51.850;-2.246;2023-06-14T02:25:20;9.13;;;3.03;;
40717;SDS011;26405;51.850;-2.246;2023-06-14T02:27:45;7.77;;;3.10;;
40717;SDS011;26405;51.850;-2.246;2023-06-14T02:30:11;9.63;;;3.57;;
40717;SDS011;26405;51.850;-2.246;2023-06-14T02:32:36;8.17;;;3.23;;
40717;SDS011;26405;51.850;-2.246;2023-06-14T02:35:02;10.60;;;3.43;;
40717;SDS011;26405;51.850;-2.246;2023-06-14T02:37:27;8.93;;;3.20;;
40717;SDS011;26405;51.850;-2.246;2023-06-14T02:39:52;10.63;;;3.40;;
40717;SDS011;26405;51.850;-2.246;2023-06-14T02:42:18;8.25;;;3.47;;
40717;SDS011;26405;51.850;-2.246;2023-06-14T02:44:43;7.23;;;3.00;;
40717;SDS011;26405;51.850;-2.246;2023-06-14T02:49:35;10.23;;;3.75;;
40717;SDS011;26405;51.850;-2.246;2023-06-14T02:52:00;8.73;;;3.65;;
40717;SDS011;26405;51.850;-2.246;2023-06-14T02:54:25;8.88;;;3.30;;
40717;SDS011;26405;51.850;-2.246;2023-06-14T02:56:50;10.80;;;3.10;;
40717;SDS011;26405;51.850;-2.246;2023-06-14T02:59:16;9.37;;;3.30;;
40717;SDS011;26405;51.850;-2.246;2023-06-14T03:01:42;8.60;;;3.20;;
40717;SDS011;26405;51.850;-2.246;2023-06-14T03:04:07;6.65;;;3.13;;
40717;SDS011;26405;51.850;-2.246;2023-06-14T03:06:33;10.90;;;3.15;;
40717;SDS011;26405;51.850;-2.246;2023-06-14T03:08:58;8.32;;;3.08;;
40717;SDS011;26405;51.850;-2.246;2023-06-14T03:11:29;8.10;;;3.35;;
40717;SDS011;26405;51.850;-2.246;2023-06-14T03:13:54;12.60;;;3.22;;
40717;SDS011;26405;51.850;-2.246;2023-06-14T03:16:21;11.80;;;3.53;;
40717;SDS011;26405;51.850;-2.246;2023-06-14T03:18:49;7.75;;;3.13;;
40717;SDS011;26405;51.850;-2.246;2023-06-14T03:21:14;10.25;;;3.40;;
40717;SDS011;26405;51.850;-2.246;2023-06-14T03:23:41;6.70;;;3.22;;
40717;SDS011;26405;51.850;-2.246;2023-06-14T03:26:06;9.18;;;3.53;;
40717;SDS011;26405;51.850;-2.246;2023-06-14T03:28:31;9.90;;;3.03;;
40717;SDS011;26405;51.850;-2.246;2023-06-14T03:30:57;8.77;;;3.28;;
40717;SDS011;26405;51.850;-2.246;2023-06-14T03:33:22;8.93;;;3.08;;
40717;SDS011;26405;51.850;-2.246;2023-06-14T03:35:47;11.37;;;3.57;;
40717;SDS011;26405;51.850;-2.246;2023-06-14T03:38:13;10.30;;;3.33;;
40717;SDS011;26405;51.850;-2.246;2023-06-14T03:40:38;6.78;;;2.90;;
40717;SDS011;26405;51.850;-2.246;2023-06-14T03:43:03;10.30;;;3.60;;
40717;SDS011;26405;51.850;-2.246;2023-06-14T03:45:28;8.75;;;3.22;;
40717;SDS011;26405;51.850;-2.246;2023-06-14T03:47:54;9.35;;;3.13;;
40717;SDS011;26405;51.850;-2.246;2023-06-14T03:50:19;7.43;;;3.22;;
40717;SDS011;26405;51.850;-2.246;2023-06-14T03:52:45;8.82;;;3.00;;
40717;SDS011;26405;51.850;-2.246;2023-06-14T03:55:10;9.15;;;3.15;;
40717;SDS011;26405;51.850;-2.246;2023-06-14T03:57:38;8.05;;;3.17;;
40717;SDS011;26405;51.850;-2.246;2023-06-14T04:00:03;8.88;;;3.00;;
40717;SDS011;26405;51.850;-2.246;2023-06-14T04:02:30;12.68;;;3.50;;
40717;SDS011;26405;51.850;-2.246;2023-06-14T04:04:56;9.02;;;3.15;;
40717;SDS011;26405;51.850;-2.246;2023-06-14T04:07:21;10.48;;;3.25;;
40717;SDS011;26405;51.850;-2.246;2023-06-14T04:09:47;10.07;;;3.27;;
40717;SDS011;26405;51.850;-2.246;2023-06-14T04:12:12;9.82;;;3.10;;
40717;SDS011;26405;51.850;-2.246;2023-06-14T04:14:38;9.32;;;3.72;;
40717;SDS011;26405;51.850;-2.246;2023-06-14T04:17:04;7.55;;;3.17;;
40717;SDS011;26405;51.850;-2.246;2023-06-14T04:19:30;8.77;;;3.30;;
40717;SDS011;26405;51.850;-2.246;2023-06-14T04:21:55;7.25;;;3.20;;
40717;SDS011;26405;51.850;-2.246;2023-06-14T04:24:20;10.65;;;3.20;;
40717;SDS011;26405;51.850;-2.246;2023-06-14T04:26:46;8.98;;;3.10;;
40717;SDS011;26405;51.850;-2.246;2023-06-14T04:29:13;10.15;;;3.33;;
40717;SDS011;26405;51.850;-2.246;2023-06-14T04:31:45;11.48;;;3.53;;
40717;SDS011;26405;51.850;-2.246;2023-06-14T04:34:11;8.75;;;3.47;;
40717;SDS011;26405;51.850;-2.246;2023-06-14T04:36:41;8.27;;;3.05;;
40717;SDS011;26405;51.850;-2.246;2023-06-14T04:41:33;10.27;;;3.30;;
40717;SDS011;26405;51.850;-2.246;2023-06-14T04:44:00;10.55;;;3.67;;
40717;SDS011;26405;51.850;-2.246;2023-06-14T04:46:26;11.02;;;3.38;;
40717;SDS011;26405;51.850;-2.246;2023-06-14T04:48:53;10.85;;;3.55;;
40717;SDS011;26405;51.850;-2.246;2023-06-14T04:51:19;9.20;;;3.63;;
40717;SDS011;26405;51.850;-2.246;2023-06-14T04:53:47;8.55;;;3.40;;
40717;SDS011;26405;51.850;-2.246;2023-06-14T04:56:14;9.77;;;3.42;;
40717;SDS011;26405;51.850;-2.246;2023-06-14T04:58:39;11.23;;;3.80;;
40717;SDS011;26405;51.850;-2.246;2023-06-14T05:01:05;6.97;;;3.15;;
40717;SDS011;26405;51.850;-2.246;2023-06-14T05:03:30;8.30;;;3.60;;
40717;SDS011;26405;51.850;-2.246;2023-06-14T05:05:56;11.38;;;3.47;;
40717;SDS011;26405;51.850;-2.246;2023-06-14T05:08:22;10.55;;;4.13;;
40717;SDS011;26405;51.850;-2.246;2023-06-14T05:10:51;13.40;;;3.60;;
40717;SDS011;26405;51.850;-2.246;2023-06-14T05:13:16;10.07;;;3.50;;
40717;SDS011;26405;51.850;-2.246;2023-06-14T05:15:42;8.93;;;3.60;;
40717;SDS011;26405;51.850;-2.246;2023-06-14T05:18:07;9.45;;;3.78;;
40717;SDS011;26405;51.850;-2.246;2023-06-14T05:20:33;19.77;;;3.75;;
40717;SDS011;26405;51.850;-2.246;2023-06-14T05:22:59;11.77;;;3.67;;
40717;SDS011;26405;51.850;-2.246;2023-06-14T05:25:25;15.57;;;3.53;;
40717;SDS011;26405;51.850;-2.246;2023-06-14T05:27:53;10.63;;;3.70;;
40717;SDS011;26405;51.850;-2.246;2023-06-14T05:30:18;9.32;;;3.42;;
40717;SDS011;26405;51.850;-2.246;2023-06-14T05:32:43;10.05;;;3.83;;
40717;SDS011;26405;51.850;-2.246;2023-06-14T05:35:09;13.98;;;3.65;;
40717;SDS011;26405;51.850;-2.246;2023-06-14T05:37:34;10.27;;;3.23;;
40717;SDS011;26405;51.850;-2.246;2023-06-14T05:40:00;9.60;;;3.28;;
40717;SDS011;26405;51.850;-2.246;2023-06-14T05:42:25;10.30;;;3.35;;
40717;SDS011;26405;51.850;-2.246;2023-06-14T05:44:50;6.83;;;3.40;;
40717;SDS011;26405;51.850;-2.246;2023-06-14T05:47:15;13.43;;;3.83;;
40717;SDS011;26405;51.850;-2.246;2023-06-14T05:49:41;7.38;;;3.10;;
40717;SDS011;26405;51.850;-2.246;2023-06-14T05:52:06;6.20;;;3.13;;
40717;SDS011;26405;51.850;-2.246;2023-06-14T05:54:32;7.95;;;3.28;;
40717;SDS011;26405;51.850;-2.246;2023-06-14T05:56:57;10.68;;;3.60;;
40717;SDS011;26405;51.850;-2.246;2023-06-14T05:59:26;8.98;;;3.20;;
40717;SDS011;26405;51.850;-2.246;2023-06-14T06:01:52;7.73;;;3.50;;
40717;SDS011;26405;51.850;-2.246;2023-06-14T06:04:17;10.07;;;3.50;;
40717;SDS011;26405;51.850;-2.246;2023-06-14T06:06:42;10.05;;;3.35;;
40717;SDS011;26405;51.850;-2.246;2023-06-14T06:09:07;7.80;;;3.45;;
40717;SDS011;26405;51.850;-2.246;2023-06-14T06:11:33;9.50;;;3.55;;
40717;SDS011;26405;51.850;-2.246;2023-06-14T06:13:58;11.83;;;3.50;;
40717;SDS011;26405;51.850;-2.246;2023-06-14T06:16:23;12.00;;;3.57;;
40717;SDS011;26405;51.850;-2.246;2023-06-14T06:18:49;9.05;;;3.83;;
40717;SDS011;26405;51.850;-2.246;2023-06-14T06:21:14;15.73;;;4.03;;
40717;SDS011;26405;51.850;-2.246;2023-06-14T06:23:40;10.35;;;3.92;;
40717;SDS011;26405;51.850;-2.246;2023-06-14T06:26:06;9.77;;;3.70;;
40717;SDS011;26405;51.850;-2.246;2023-06-14T06:28:31;11.00;;;3.93;;
40717;SDS011;26405;51.850;-2.246;2023-06-14T06:30:56;9.60;;;3.87;;
40717;SDS011;26405;51.850;-2.246;2023-06-14T06:33:22;12.13;;;4.00;;
40717;SDS011;26405;51.850;-2.246;2023-06-14T06:35:47;13.50;;;4.28;;
40717;SDS011;26405;51.850;-2.246;2023-06-14T06:38:12;13.93;;;4.17;;
40717;SDS011;26405;51.850;-2.246;2023-06-14T06:40:37;10.52;;;4.15;;
40717;SDS011;26405;51.850;-2.246;2023-06-14T06:43:03;11.37;;;3.87;;
40717;SDS011;26405;51.850;-2.246;2023-06-14T06:45:28;10.57;;;3.70;;
40717;SDS011;26405;51.850;-2.246;2023-06-14T06:47:53;11.53;;;3.93;;
40717;SDS011;26405;51.850;-2.246;2023-06-14T06:50:19;10.30;;;3.70;;
40717;SDS011;26405;51.850;-2.246;2023-06-14T06:52:44;10.67;;;3.83;;
40717;SDS011;26405;51.850;-2.246;2023-06-14T06:55:10;10.30;;;3.90;;
40717;SDS011;26405;51.850;-2.246;2023-06-14T06:57:36;14.57;;;3.93;;
40717;SDS011;26405;51.850;-2.246;2023-06-14T07:00:01;15.47;;;3.93;;
40717;SDS011;26405;51.850;-2.246;2023-06-14T07:02:27;10.67;;;3.70;;
40717;SDS011;26405;51.850;-2.246;2023-06-14T07:04:52;11.20;;;3.90;;
40717;SDS011;26405;51.850;-2.246;2023-06-14T07:07:18;13.30;;;3.87;;
40717;SDS011;26405;51.850;-2.246;2023-06-14T07:09:43;14.10;;;4.17;;
40717;SDS011;26405;51.850;-2.246;2023-06-14T07:12:09;11.60;;;4.03;;
40717;SDS011;26405;51.850;-2.246;2023-06-14T07:14:35;10.70;;;3.88;;
40717;SDS011;26405;51.850;-2.246;2023-06-14T07:17:00;7.70;;;3.63;;
40717;SDS011;26405;51.850;-2.246;2023-06-14T07:19:26;7.77;;;3.60;;
40717;SDS011;26405;51.850;-2.246;2023-06-14T07:21:51;9.87;;;3.67;;
40717;SDS011;26405;51.850;-2.246;2023-06-14T07:24:16;11.97;;;3.77;;
40717;SDS011;26405;51.850;-2.246;2023-06-14T07:26:42;9.57;;;3.43;;
40717;SDS011;26405;51.850;-2.246;2023-06-14T07:29:07;12.37;;;3.90;;
40717;SDS011;26405;51.850;-2.246;2023-06-14T07:31:32;13.20;;;3.97;;
40717;SDS011;26405;51.850;-2.246;2023-06-14T07:33:58;8.53;;;3.73;;
40717;SDS011;26405;51.850;-2.246;2023-06-14T07:36:23;14.67;;;4.57;;
40717;SDS011;26405;51.850;-2.246;2023-06-14T07:38:48;10.67;;;3.53;;
40717;SDS011;26405;51.850;-2.246;2023-06-14T07:41:13;12.43;;;4.13;;
40717;SDS011;26405;51.850;-2.246;2023-06-14T07:43:39;15.10;;;3.90;;
40717;SDS011;26405;51.850;-2.246;2023-06-14T07:46:04;8.67;;;3.57;;
40717;SDS011;26405;51.850;-2.246;2023-06-14T07:48:30;10.50;;;3.90;;
40717;SDS011;26405;51.850;-2.246;2023-06-14T07:50:55;11.30;;;3.93;;
40717;SDS011;26405;51.850;-2.246;2023-06-14T07:53:20;14.10;;;4.37;;
40717;SDS011;26405;51.850;-2.246;2023-06-14T07:55:46;8.57;;;3.50;;
40717;SDS011;26405;51.850;-2.246;2023-06-14T07:58:12;12.70;;;4.05;;
40717;SDS011;26405;51.850;-2.246;2023-06-14T08:00:37;14.27;;;3.80;;
40717;SDS011;26405;51.850;-2.246;2023-06-14T08:03:03;12.70;;;4.50;;
40717;SDS011;26405;51.850;-2.246;2023-06-14T08:05:29;10.63;;;3.90;;
40717;SDS011;26405;51.850;-2.246;2023-06-14T08:07:54;12.67;;;3.83;;
40717;SDS011;26405;51.850;-2.246;2023-06-14T08:10:20;10.67;;;3.73;;
40717;SDS011;26405;51.850;-2.246;2023-06-14T08:12:45;9.63;;;3.80;;
40717;SDS011;26405;51.850;-2.246;2023-06-14T08:15:11;11.10;;;3.97;;
40717;SDS011;26405;51.850;-2.246;2023-06-14T08:17:36;10.57;;;3.73;;
40717;SDS011;26405;51.850;-2.246;2023-06-14T08:20:02;12.50;;;3.80;;
40717;SDS011;26405;51.850;-2.246;2023-06-14T08:22:29;15.15;;;4.32;;
40717;SDS011;26405;51.850;-2.246;2023-06-14T08:24:57;13.13;;;4.05;;
40717;SDS011;26405;51.850;-2.246;2023-06-14T08:27:22;11.43;;;4.27;;
40717;SDS011;26405;51.850;-2.246;2023-06-14T08:29:48;13.80;;;3.67;;
40717;SDS011;26405;51.850;-2.246;2023-06-14T08:32:13;8.67;;;3.70;;
40717;SDS011;26405;51.850;-2.246;2023-06-14T08:34:38;11.83;;;3.77;;
40717;SDS011;26405;51.850;-2.246;2023-06-14T08:37:03;11.53;;;3.73;;
40717;SDS011;26405;51.850;-2.246;2023-06-14T08:39:30;11.80;;;3.80;;
40717;SDS011;26405;51.850;-2.246;2023-06-14T08:41:55;13.80;;;3.80;;
40717;SDS011;26405;51.850;-2.246;2023-06-14T08:44:21;9.85;;;3.85;;
40717;SDS011;26405;51.850;-2.246;2023-06-14T08:46:47;14.90;;;4.03;;
40717;SDS011;26405;51.850;-2.246;2023-06-14T08:49:13;15.32;;;4.05;;
40717;SDS011;26405;51.850;-2.246;2023-06-14T08:51:39;12.38;;;3.88;;
40717;SDS011;26405;51.850;-2.246;2023-06-14T08:54:05;11.13;;;4.50;;
40717;SDS011;26405;51.850;-2.246;2023-06-14T08:56:31;8.63;;;3.67;;
40717;SDS011;26405;51.850;-2.246;2023-06-14T08:58:58;11.65;;;4.15;;
40717;SDS011;26405;51.850;-2.246;2023-06-14T09:01:27;14.20;;;4.20;;
40717;SDS011;26405;51.850;-2.246;2023-06-14T09:03:53;13.27;;;4.13;;
40717;SDS011;26405;51.850;-2.246;2023-06-14T09:06:20;12.85;;;3.80;;
40717;SDS011;26405;51.850;-2.246;2023-06-14T09:08:48;12.70;;;4.20;;
40717;SDS011;26405;51.850;-2.246;2023-06-14T09:11:14;9.97;;;3.80;;
40717;SDS011;26405;51.850;-2.246;2023-06-14T09:13:39;15.95;;;4.32;;
40717;SDS011;26405;51.850;-2.246;2023-06-14T09:16:05;10.80;;;4.00;;
40717;SDS011;26405;51.850;-2.246;2023-06-14T09:18:35;12.05;;;4.00;;
40717;SDS011;26405;51.850;-2.246;2023-06-14T09:21:00;12.35;;;4.30;;
40717;SDS011;26405;51.850;-2.246;2023-06-14T09:23:25;17.33;;;4.27;;
40717;SDS011;26405;51.850;-2.246;2023-06-14T09:25:50;15.77;;;4.30;;
40717;SDS011;26405;51.850;-2.246;2023-06-14T09:28:15;17.47;;;4.37;;
40717;SDS011;26405;51.850;-2.246;2023-06-14T09:30:41;16.93;;;4.00;;
40717;SDS011;26405;51.850;-2.246;2023-06-14T09:33:06;15.37;;;4.30;;
40717;SDS011;26405;51.850;-2.246;2023-06-14T09:35:32;12.77;;;4.30;;
40717;SDS011;26405;51.850;-2.246;2023-06-14T09:37:57;14.77;;;4.83;;
40717;SDS011;26405;51.850;-2.246;2023-06-14T09:40:23;7.90;;;3.73;;
40717;SDS011;26405;51.850;-2.246;2023-06-14T09:42:48;10.03;;;4.07;;
40717;SDS011;26405;51.850;-2.246;2023-06-14T09:45:14;13.18;;;4.15;;
40717;SDS011;26405;51.850;-2.246;2023-06-14T09:47:44;13.38;;;3.75;;
40717;SDS011;26405;51.850;-2.246;2023-06-14T09:50:10;11.65;;;3.83;;
40717;SDS011;26405;51.850;-2.246;2023-06-14T09:52:35;16.37;;;4.57;;
40717;SDS011;26405;51.850;-2.246;2023-06-14T09:55:01;11.80;;;3.90;;
40717;SDS011;26405;51.850;-2.246;2023-06-14T09:57:32;10.95;;;3.65;;
40717;SDS011;26405;51.850;-2.246;2023-06-14T09:59:59;11.40;;;3.95;;
40717;SDS011;26405;51.850;-2.246;2023-06-14T10:02:29;16.98;;;4.55;;
40717;SDS011;26405;51.850;-2.246;2023-06-14T10:05:00;10.13;;;4.00;;
40717;SDS011;26405;51.850;-2.246;2023-06-14T10:07:30;13.60;;;4.10;;
40717;SDS011;26405;51.850;-2.246;2023-06-14T10:09:56;11.77;;;4.30;;
40717;SDS011;26405;51.850;-2.246;2023-06-14T10:12:22;15.63;;;4.30;;
40717;SDS011;26405;51.850;-2.246;2023-06-14T10:14:51;12.10;;;3.87;;
40717;SDS011;26405;51.850;-2.246;2023-06-14T10:18:01;10.13;;;3.50;;
40717;SDS011;26405;51.850;-2.246;2023-06-14T10:22:42;11.25;;;3.88;;
40717;SDS011;26405;51.850;-2.246;2023-06-14T10:25:12;12.48;;;3.80;;
40717;SDS011;26405;51.850;-2.246;2023-06-14T10:27:38;10.32;;;3.95;;
40717;SDS011;26405;51.850;-2.246;2023-06-14T10:30:03;10.63;;;4.00;;
40717;SDS011;26405;51.850;-2.246;2023-06-14T10:32:29;9.95;;;3.55;;
40717;SDS011;26405;51.850;-2.246;2023-06-14T10:34:59;9.60;;;3.90;;
40717;SDS011;26405;51.850;-2.246;2023-06-14T10:37:24;12.02;;;3.88;;
40717;SDS011;26405;51.850;-2.246;2023-06-14T10:39:50;9.77;;;3.83;;
40717;SDS011;26405;51.850;-2.246;2023-06-14T10:42:15;9.63;;;3.77;;
40717;SDS011;26405;51.850;-2.246;2023-06-14T10:47:06;9.23;;;3.63;;
40717;SDS011;26405;51.850;-2.246;2023-06-14T10:49:45;14.88;;;4.38;;
40717;SDS011;26405;51.850;-2.246;2023-06-14T10:52:14;14.38;;;3.85;;
40717;SDS011;26405;51.850;-2.246;2023-06-14T10:57:31;11.90;;;3.95;;
40717;SDS011;26405;51.850;-2.246;2023-06-14T11:00:00;16.08;;;4.10;;
40717;SDS011;26405;51.850;-2.246;2023-06-14T11:05:11;13.95;;;3.85;;
40717;SDS011;26405;51.850;-2.246;2023-06-14T11:12:42;12.55;;;3.80;;
40717;SDS011;26405;51.850;-2.246;2023-06-14T11:15:10;10.00;;;4.00;;
40717;SDS011;26405;51.850;-2.246;2023-06-14T11:17:35;15.93;;;4.10;;
40717;SDS011;26405;51.850;-2.246;2023-06-14T11:20:10;10.47;;;3.90;;
40717;SDS011;26405;51.850;-2.246;2023-06-14T11:22:44;11.43;;;4.20;;
40717;SDS011;26405;51.850;-2.246;2023-06-14T11:25:09;13.52;;;3.92;;
40717;SDS011;26405;51.850;-2.246;2023-06-14T11:27:35;13.27;;;4.40;;
40717;SDS011;26405;51.850;-2.246;2023-06-14T11:30:01;9.23;;;4.10;;
40717;SDS011;26405;51.850;-2.246;2023-06-14T11:32:26;8.00;;;3.63;;
40717;SDS011;26405;51.850;-2.246;2023-06-14T11:34:51;10.60;;;3.90;;
40717;SDS011;26405;51.850;-2.246;2023-06-14T11:37:17;12.23;;;4.15;;
40717;SDS011;26405;51.850;-2.246;2023-06-14T11:39:43;11.67;;;4.37;;
40717;SDS011;26405;51.850;-2.246;2023-06-14T11:42:08;16.38;;;4.30;;
40717;SDS011;26405;51.850;-2.246;2023-06-14T11:44:38;9.73;;;3.70;;
40717;SDS011;26405;51.850;-2.246;2023-06-14T11:47:03;16.00;;;3.93;;
40717;SDS011;26405;51.850;-2.246;2023-06-14T11:49:28;12.10;;;3.90;;
40717;SDS011;26405;51.850;-2.246;2023-06-14T11:51:54;11.30;;;4.20;;
40717;SDS011;26405;51.850;-2.246;2023-06-14T11:54:19;10.80;;;3.90;;
40717;SDS011;26405;51.850;-2.246;2023-06-14T11:56:44;11.23;;;4.30;;
40717;SDS011;26405;51.850;-2.246;2023-06-14T11:59:10;13.40;;;4.10;;
40717;SDS011;26405;51.850;-2.246;2023-06-14T12:01:38;12.40;;;4.03;;
40717;SDS011;26405;51.850;-2.246;2023-06-14T12:04:03;12.40;;;4.07;;
40717;SDS011;26405;51.850;-2.246;2023-06-14T12:06:29;10.53;;;3.93;;
40717;SDS011;26405;51.850;-2.246;2023-06-14T12:08:58;10.50;;;4.20;;
40717;SDS011;26405;51.850;-2.246;2023-06-14T12:11:23;11.73;;;4.57;;
40717;SDS011;26405;51.850;-2.246;2023-06-14T12:18:39;13.80;;;4.23;;
40717;SDS011;26405;51.850;-2.246;2023-06-14T12:21:06;10.55;;;4.28;;
40717;SDS011;26405;51.850;-2.246;2023-06-14T12:25:58;13.57;;;4.15;;
40717;SDS011;26405;51.850;-2.246;2023-06-14T12:28:25;9.82;;;4.32;;
40717;SDS011;26405;51.850;-2.246;2023-06-14T12:30:56;10.77;;;4.38;;
40717;SDS011;26405;51.850;-2.246;2023-06-14T12:33:23;11.25;;;4.63;;
40717;SDS011;26405;51.850;-2.246;2023-06-14T12:38:14;9.85;;;4.30;;
40717;SDS011;26405;51.850;-2.246;2023-06-14T12:40:41;14.40;;;6.05;;
40717;SDS011;26405;51.850;-2.246;2023-06-14T12:45:32;11.13;;;4.65;;
40717;SDS011;26405;51.850;-2.246;2023-06-14T12:50:22;13.43;;;4.78;;
40717;SDS011;26405;51.850;-2.246;2023-06-14T12:55:13;14.50;;;4.03;;
40717;SDS011;26405;51.850;-2.246;2023-06-14T12:57:39;10.27;;;4.32;;
40717;SDS011;26405;51.850;-2.246;2023-06-14T13:02:30;12.32;;;4.47;;
40717;SDS011;26405;51.850;-2.246;2023-06-14T13:07:23;10.73;;;4.53;;
40717;SDS011;26405;51.850;-2.246;2023-06-14T13:12:13;14.57;;;5.03;;
40717;SDS011;26405;51.850;-2.246;2023-06-14T13:17:05;14.30;;;4.65;;
40717;SDS011;26405;51.850;-2.246;2023-06-14T13:21:56;11.90;;;4.15;;
40717;SDS011;26405;51.850;-2.246;2023-06-14T13:26:46;12.50;;;4.30;;
40717;SDS011;26405;51.850;-2.246;2023-06-14T13:29:11;13.37;;;5.00;;
40717;SDS011;26405;51.850;-2.246;2023-06-14T13:31:37;17.30;;;5.40;;
40717;SDS011;26405;51.850;-2.246;2023-06-14T13:34:02;9.52;;;4.50;;
40717;SDS011;26405;51.850;-2.246;2023-06-14T13:36:27;11.37;;;4.70;;
40717;SDS011;26405;51.850;-2.246;2023-06-14T13:38:53;20.80;;;4.97;;
40717;SDS011;26405;51.850;-2.246;2023-06-14T13:41:20;14.60;;;5.07;;
40717;SDS011;26405;51.850;-2.246;2023-06-14T13:43:45;9.27;;;4.50;;
40717;SDS011;26405;51.850;-2.246;2023-06-14T13:46:10;10.93;;;4.47;;
40717;SDS011;26405;51.850;-2.246;2023-06-14T13:48:35;11.03;;;4.37;;
40717;SDS011;26405;51.850;-2.246;2023-06-14T13:51:01;11.80;;;4.53;;
40717;SDS011;26405;51.850;-2.246;2023-06-14T13:53:28;10.82;;;4.40;;
40717;SDS011;26405;51.850;-2.246;2023-06-14T13:55:54;15.57;;;4.83;;
40717;SDS011;26405;51.850;-2.246;2023-06-14T13:58:19;13.00;;;4.60;;
40717;SDS011;26405;51.850;-2.246;2023-06-14T14:00:44;10.43;;;4.90;;
40717;SDS011;26405;51.850;-2.246;2023-06-14T14:03:10;10.68;;;4.25;;
40717;SDS011;26405;51.850;-2.246;2023-06-14T14:05:36;13.63;;;4.60;;
40717;SDS011;26405;51.850;-2.246;2023-06-14T14:08:01;10.27;;;4.80;;
40717;SDS011;26405;51.850;-2.246;2023-06-14T14:10:27;9.68;;;4.75;;
40717;SDS011;26405;51.850;-2.246;2023-06-14T14:12:52;13.98;;;4.72;;
40717;SDS011;26405;51.850;-2.246;2023-06-14T14:15:18;11.52;;;4.57;;
40717;SDS011;26405;51.850;-2.246;2023-06-14T14:17:43;14.00;;;4.68;;
40717;SDS011;26405;51.850;-2.246;2023-06-14T14:20:10;14.10;;;4.80;;
40717;SDS011;26405;51.850;-2.246;2023-06-14T14:22:37;10.95;;;4.30;;
40717;SDS011;26405;51.850;-2.246;2023-06-14T14:25:03;17.13;;;4.95;;
40717;SDS011;26405;51.850;-2.246;2023-06-14T14:27:28;13.15;;;4.53;;
40717;SDS011;26405;51.850;-2.246;2023-06-14T14:29:53;9.23;;;4.57;;
40717;SDS011;26405;51.850;-2.246;2023-06-14T14:32:19;15.57;;;4.70;;
40717;SDS011;26405;51.850;-2.246;2023-06-14T14:34:45;10.80;;;4.63;;
40717;SDS011;26405;51.850;-2.246;2023-06-14T14:37:10;7.90;;;4.37;;
40717;SDS011;26405;51.850;-2.246;2023-06-14T14:39:36;12.23;;;4.57;;
40717;SDS011;26405;51.850;-2.246;2023-06-14T14:42:01;13.70;;;4.63;;
40717;SDS011;26405;51.850;-2.246;2023-06-14T14:44:27;12.45;;;4.40;;
40717;SDS011;26405;51.850;-2.246;2023-06-14T14:46:52;13.10;;;4.68;;
40717;SDS011;26405;51.850;-2.246;2023-06-14T14:49:18;15.83;;;5.17;;
40717;SDS011;26405;51.850;-2.246;2023-06-14T14:51:43;9.37;;;4.50;;
40717;SDS011;26405;51.850;-2.246;2023-06-14T14:54:08;11.48;;;4.43;;
40717;SDS011;26405;51.850;-2.246;2023-06-14T14:56:34;12.73;;;5.03;;
40717;SDS011;26405;51.850;-2.246;2023-06-14T14:59:00;12.07;;;4.47;;
40717;SDS011;26405;51.850;-2.246;2023-06-14T15:01:25;19.33;;;5.03;;
40717;SDS011;26405;51.850;-2.246;2023-06-14T15:03:50;12.47;;;4.63;;
40717;SDS011;26405;51.850;-2.246;2023-06-14T15:06:16;19.17;;;4.85;;
40717;SDS011;26405;51.850;-2.246;2023-06-14T15:08:42;12.57;;;4.50;;
40717;SDS011;26405;51.850;-2.246;2023-06-14T15:11:07;10.37;;;4.93;;
40717;SDS011;26405;51.850;-2.246;2023-06-14T15:13:33;13.75;;;5.35;;
40717;SDS011;26405;51.850;-2.246;2023-06-14T15:15:58;10.33;;;4.73;;